Time;durP1;ratioP1;P1;durP2;ratioP2;P2;SDS_P1;SDS_P2;PMS_P1;PMS_P2;Temp;Humidity;BMP_temperature;BMP_pressure;BME280_temperature;BME280_humidity;BME280_pressure;Samples;Min_cycle;Max_cycle;Signal;HPM_P1;HPM_P2
2020/12/02 00:01:39;;;;;;;8.25;5.40;;;8.00;99.90;;;;;;4174260;28;20453;-74
2020/12/02 00:03:53;;;;;;;8.90;5.35;;;8.00;99.90;;;;;;4170798;28;20041;-74
2020/12/02 00:05:55;;;;;;;9.45;5.20;;;8.00;99.90;;;;;;4175339;28;20047;-74
2020/12/02 00:08:22;;;;;;;7.38;4.95;;;8.00;99.90;;;;;;4176665;28;20037;-74
2020/12/02 00:10:23;;;;;;;9.35;4.97;;;8.00;99.90;;;;;;4166623;28;20385;-74
2020/12/02 00:12:25;;;;;;;6.65;4.68;;;8.00;99.90;;;;;;4176990;28;20032;-74
2020/12/02 00:14:28;;;;;;;6.30;4.70;;;8.00;99.90;;;;;;4175103;28;20183;-74
2020/12/02 00:16:31;;;;;;;6.68;5.22;;;8.00;99.90;;;;;;4176450;28;20033;-74
2020/12/02 00:18:35;;;;;;;7.90;5.35;;;8.00;99.90;;;;;;4172831;28;20041;-74
2020/12/02 00:20:35;;;;;;;7.25;4.90;;;8.00;99.90;;;;;;4168003;28;20053;-74
2020/12/02 00:22:36;;;;;;;6.35;4.60;;;8.00;99.90;;;;;;4176474;28;20025;-74
2020/12/02 00:24:37;;;;;;;6.60;4.60;;;8.00;99.90;;;;;;4176408;28;20033;-74
2020/12/02 00:26:38;;;;;;;6.75;4.57;;;8.00;99.90;;;;;;4175465;28;20040;-74
2020/12/02 00:28:39;;;;;;;9.45;5.45;;;8.00;99.90;;;;;;4174525;28;20457;-74
2020/12/02 00:30:41;;;;;;;6.97;5.10;;;8.00;99.90;;;;;;4170823;28;20082;-74
2020/12/02 00:32:45;;;;;;;9.27;6.10;;;8.00;99.90;;;;;;4158622;28;20025;-74
2020/12/02 00:34:45;;;;;;;7.53;5.07;;;8.00;99.90;;;;;;4176866;28;20041;-74
2020/12/02 00:36:46;;;;;;;6.22;4.72;;;8.10;99.90;;;;;;4175106;28;20131;-74
2020/12/02 00:38:54;;;;;;;6.32;4.38;;;8.10;99.90;;;;;;4177243;28;20503;-74
2020/12/02 00:40:55;;;;;;;7.40;4.97;;;8.10;99.90;;;;;;4166521;28;20115;-74
2020/12/02 00:42:56;;;;;;;7.03;4.75;;;8.10;99.90;;;;;;4175594;28;20059;-74
2020/12/02 00:44:56;;;;;;;8.65;4.72;;;8.10;99.90;;;;;;4170262;28;20053;-75
2020/12/02 00:46:57;;;;;;;9.00;5.18;;;8.10;99.90;;;;;;4171666;28;20029;-74
2020/12/02 00:48:57;;;;;;;7.35;4.88;;;8.10;99.90;;;;;;4171666;28;20076;-74
2020/12/02 00:51:00;;;;;;;8.23;4.65;;;8.10;99.90;;;;;;4171449;28;20098;-74
2020/12/02 00:53:13;;;;;;;7.75;4.65;;;8.10;99.90;;;;;;4174703;28;20033;-74
2020/12/02 00:55:14;;;;;;;7.35;5.05;;;8.10;99.90;;;;;;4176202;28;20037;-74
2020/12/02 00:57:22;;;;;;;7.90;4.95;;;8.10;99.90;;;;;;4158826;28;20040;-74
2020/12/02 00:59:28;;;;;;;6.53;4.38;;;8.20;99.90;;;;;;4183431;28;20040;-74
2020/12/02 01:01:52;;;;;;;8.13;5.18;;;8.20;99.90;;;;;;4156606;28;20029;-73
2020/12/02 01:03:57;;;;;;;8.35;5.13;;;8.10;99.90;;;;;;4172921;28;20037;-74
2020/12/02 01:05:59;;;;;;;8.20;5.10;;;8.10;99.90;;;;;;4171124;28;20523;-74
2020/12/02 01:08:19;;;;;;;7.80;5.30;;;8.10;99.90;;;;;;4176506;28;20037;-74
2020/12/02 01:10:20;;;;;;;8.70;5.20;;;8.10;99.90;;;;;;4175818;28;20033;-74
2020/12/02 01:12:21;;;;;;;9.25;5.57;;;8.10;99.90;;;;;;4166188;28;20033;-74
2020/12/02 01:14:25;;;;;;;7.25;5.07;;;8.10;99.90;;;;;;4176147;28;20081;-74
2020/12/02 01:16:36;;;;;;;8.00;5.25;;;8.20;99.90;;;;;;4167667;28;20083;-74
2020/12/02 01:18:38;;;;;;;7.45;5.20;;;8.20;99.90;;;;;;4168234;28;20036;-74
2020/12/02 01:20:39;;;;;;;8.63;5.63;;;8.20;99.90;;;;;;4175572;28;20541;-74
2020/12/02 01:22:42;;;;;;;6.90;5.38;;;8.10;99.90;;;;;;4176495;28;20036;-74
2020/12/02 01:25:06;;;;;;;7.15;5.72;;;8.20;99.90;;;;;;4157997;28;20033;-74
2020/12/02 01:27:11;;;;;;;8.88;5.72;;;8.20;99.90;;;;;;4167104;28;20405;-74
2020/12/02 01:29:23;;;;;;;10.23;6.30;;;8.20;99.90;;;;;;4174354;28;20421;-74
2020/12/02 01:31:25;;;;;;;8.48;5.72;;;8.20;99.90;;;;;;4170005;28;20507;-74
2020/12/02 01:33:26;;;;;;;7.53;5.90;;;8.10;99.90;;;;;;4176911;28;20032;-74
2020/12/02 01:35:31;;;;;;;13.25;6.20;;;8.10;99.90;;;;;;4161496;28;20657;-74
2020/12/02 01:37:41;;;;;;;8.48;5.95;;;8.10;99.90;;;;;;4177701;28;20025;-74
2020/12/02 01:39:46;;;;;;;8.80;6.13;;;8.10;99.90;;;;;;4179392;28;20365;-74
2020/12/02 01:41:48;;;;;;;8.32;6.22;;;8.10;99.90;;;;;;4169527;28;20390;-74
2020/12/02 01:43:53;;;;;;;10.40;6.32;;;8.10;99.90;;;;;;4177990;28;20564;-74
2020/12/02 01:46:09;;;;;;;9.07;6.80;;;8.10;99.90;;;;;;4161179;28;20042;-74
2020/12/02 01:48:47;;;;;;;9.73;6.68;;;8.10;99.90;;;;;;4169134;28;20048;-74
2020/12/02 01:50:57;;;;;;;11.50;7.97;;;8.10;99.90;;;;;;4161081;28;20041;-75
2020/12/02 01:53:18;;;;;;;10.52;7.85;;;8.10;99.90;;;;;;4161310;28;20505;-74
2020/12/02 01:55:42;;;;;;;9.75;6.88;;;8.10;99.90;;;;;;4177494;28;20041;-74
2020/12/02 01:57:45;;;;;;;9.18;7.32;;;8.10;99.90;;;;;;4172145;28;20039;-74
2020/12/02 02:00:04;;;;;;;10.55;7.85;;;8.10;99.90;;;;;;4177179;28;20045;-74
2020/12/02 02:02:11;;;;;;;11.43;7.72;;;8.10;99.90;;;;;;4178869;28;20029;-75
2020/12/02 02:04:16;;;;;;;11.23;7.95;;;8.10;99.90;;;;;;4176911;28;20072;-74
2020/12/02 02:06:25;;;;;;;11.15;8.20;;;8.10;99.90;;;;;;4160800;28;20612;-74
2020/12/02 02:08:29;;;;;;;11.77;8.27;;;8.10;99.90;;;;;;4153466;28;20029;-75
2020/12/02 02:10:35;;;;;;;13.25;8.43;;;8.10;99.90;;;;;;4160741;28;20439;-74
2020/12/02 02:12:54;;;;;;;10.90;8.40;;;8.10;99.90;;;;;;4177732;28;20384;-74
2020/12/02 02:15:33;;;;;;;12.18;8.27;;;8.20;99.90;;;;;;4177549;28;20555;-74
2020/12/02 02:17:34;;;;;;;13.63;9.10;;;8.20;99.90;;;;;;4171653;28;20029;-74
2020/12/02 02:19:34;;;;;;;11.52;8.68;;;8.20;99.90;;;;;;4175572;28;20056;-74
2020/12/02 02:21:35;;;;;;;13.23;9.95;;;8.20;99.90;;;;;;4170727;28;20036;-74
2020/12/02 02:23:36;;;;;;;14.60;10.43;;;8.10;99.90;;;;;;4160731;28;20030;-74
2020/12/02 02:25:37;;;;;;;14.77;10.82;;;8.10;99.90;;;;;;4177107;28;20516;-74
2020/12/02 02:27:38;;;;;;;15.20;10.30;;;8.10;99.90;;;;;;4178516;28;20033;-74
2020/12/02 02:29:42;;;;;;;15.70;11.05;;;8.10;99.90;;;;;;4174571;28;20643;-74
2020/12/02 02:31:59;;;;;;;14.40;10.02;;;8.10;99.90;;;;;;4172967;28;20047;-74
2020/12/02 02:34:00;;;;;;;15.40;10.60;;;8.10;99.90;;;;;;4170347;28;20037;-75
2020/12/02 02:36:01;;;;;;;14.98;10.45;;;8.10;99.90;;;;;;4178739;28;20033;-74
2020/12/02 02:38:05;;;;;;;13.98;10.52;;;8.10;99.90;;;;;;4177140;28;20033;-74
2020/12/02 02:40:08;;;;;;;15.02;10.90;;;8.10;99.90;;;;;;4177182;28;20025;-74
2020/12/02 02:42:36;;;;;;;16.17;11.15;;;8.10;99.90;;;;;;4174159;28;20427;-74
2020/12/02 02:44:37;;;;;;;16.25;11.75;;;8.10;99.90;;;;;;4178534;28;20511;-74
2020/12/02 02:46:39;;;;;;;15.48;11.57;;;8.10;99.90;;;;;;4174298;28;20672;-74
2020/12/02 02:48:40;;;;;;;18.10;11.93;;;8.00;99.90;;;;;;4172785;28;20098;-74
2020/12/02 02:50:41;;;;;;;17.08;12.93;;;8.00;99.90;;;;;;4160108;28;20037;-74
2020/12/02 02:52:42;;;;;;;18.92;13.48;;;8.00;99.90;;;;;;4174062;28;20037;-74
2020/12/02 02:54:43;;;;;;;18.42;12.88;;;7.90;99.90;;;;;;4164098;28;20190;-74
2020/12/02 02:56:44;;;;;;;17.10;12.52;;;8.00;99.90;;;;;;4176529;28;20045;-74
2020/12/02 02:58:44;;;;;;;17.45;12.20;;;8.00;99.90;;;;;;4177069;28;20055;-74
2020/12/02 03:00:45;;;;;;;18.52;12.38;;;8.10;99.90;;;;;;4176531;28;20029;-74
2020/12/02 03:02:46;;;;;;;18.25;12.55;;;8.00;99.90;;;;;;4156778;28;20087;-74
2020/12/02 03:04:47;;;;;;;18.48;12.60;;;8.10;99.90;;;;;;4171648;28;20033;-74
2020/12/02 03:06:48;;;;;;;17.42;12.48;;;8.10;99.90;;;;;;4176058;28;20041;-74
2020/12/02 03:08:50;;;;;;;17.75;12.80;;;8.10;99.90;;;;;;4177979;28;20033;-74
2020/12/02 03:10:53;;;;;;;17.55;12.05;;;8.10;99.90;;;;;;4177918;28;20052;-74
2020/12/02 03:12:58;;;;;;;17.67;12.20;;;8.10;99.90;;;;;;4176333;28;20032;-74
2020/12/02 03:14:59;;;;;;;17.75;11.95;;;8.10;99.90;;;;;;4154447;28;20394;-74
2020/12/02 03:17:00;;;;;;;19.13;12.80;;;8.10;99.90;;;;;;4173314;28;20512;-74
2020/12/02 03:19:29;;;;;;;18.85;12.85;;;8.20;99.90;;;;;;4175893;28;20040;-74
2020/12/02 03:21:29;;;;;;;15.93;11.85;;;8.10;99.90;;;;;;4167858;28;20021;-74
2020/12/02 03:23:30;;;;;;;17.05;12.02;;;8.10;99.90;;;;;;4177852;28;20563;-74
2020/12/02 03:25:33;;;;;;;19.08;13.05;;;8.10;99.90;;;;;;4176562;28;20033;-74
2020/12/02 03:27:33;;;;;;;16.65;11.80;;;8.10;99.90;;;;;;4175979;28;20124;-74
2020/12/02 03:29:34;;;;;;;16.15;11.70;;;8.10;99.90;;;;;;4174418;28;20056;-74
2020/12/02 03:31:36;;;;;;;17.10;12.48;;;8.10;99.90;;;;;;4176124;28;20036;-74
2020/12/02 03:33:36;;;;;;;18.02;11.43;;;8.10;99.90;;;;;;4176261;28;20029;-74
2020/12/02 03:35:40;;;;;;;17.60;11.13;;;8.10;99.90;;;;;;4157550;28;20026;-74
2020/12/02 03:37:41;;;;;;;16.85;10.70;;;8.10;99.90;;;;;;4177857;28;20517;-74
2020/12/02 03:39:42;;;;;;;18.50;12.13;;;8.10;99.90;;;;;;4177851;28;20567;-74
2020/12/02 03:41:43;;;;;;;20.58;12.23;;;8.10;99.90;;;;;;4165136;28;20045;-74
2020/12/02 03:43:44;;;;;;;17.95;11.80;;;8.10;99.90;;;;;;4174799;28;20537;-74
2020/12/02 03:45:45;;;;;;;17.90;11.40;;;8.10;99.90;;;;;;4174367;28;20095;-74
2020/12/02 03:47:46;;;;;;;18.25;12.02;;;8.10;99.90;;;;;;4172646;28;20040;-74
2020/12/02 03:49:46;;;;;;;20.65;12.57;;;8.10;99.90;;;;;;4177545;28;20029;-74
2020/12/02 03:51:47;;;;;;;19.20;12.30;;;8.00;99.90;;;;;;4175495;28;20029;-74
2020/12/02 03:53:47;;;;;;;21.50;11.82;;;8.10;99.90;;;;;;4176113;28;20029;-74
2020/12/02 03:55:48;;;;;;;16.08;11.00;;;8.00;99.90;;;;;;4174729;28;20029;-74
2020/12/02 03:57:49;;;;;;;22.88;12.48;;;8.10;99.90;;;;;;4177158;28;20041;-75
2020/12/02 03:59:49;;;;;;;20.25;12.80;;;8.00;99.90;;;;;;4168803;28;23318;-74
2020/12/02 04:01:50;;;;;;;22.48;12.52;;;8.00;99.90;;;;;;4176240;28;20056;-74
2020/12/02 04:03:50;;;;;;;19.08;12.23;;;8.00;99.90;;;;;;4176762;28;20593;-74
2020/12/02 04:05:51;;;;;;;23.70;13.75;;;8.00;99.90;;;;;;4159196;28;20033;-74
2020/12/02 04:07:51;;;;;;;24.33;13.02;;;8.00;99.90;;;;;;4174694;28;20040;-74
2020/12/02 04:09:52;;;;;;;22.20;13.27;;;8.00;99.90;;;;;;4176220;28;20037;-74
2020/12/02 04:11:53;;;;;;;19.63;11.35;;;8.00;99.90;;;;;;4175441;28;20683;-75
2020/12/02 04:13:53;;;;;;;20.20;12.70;;;8.00;99.90;;;;;;4175243;28;20091;-74
2020/12/02 04:15:54;;;;;;;18.98;11.80;;;7.90;99.90;;;;;;4171588;28;20025;-74
2020/12/02 04:17:55;;;;;;;20.15;11.85;;;7.90;99.90;;;;;;4174865;28;20052;-74
2020/12/02 04:19:55;;;;;;;18.52;11.80;;;8.00;99.90;;;;;;4175566;28;20385;-74
2020/12/02 04:21:57;;;;;;;18.60;12.18;;;7.90;99.90;;;;;;4176133;28;20040;-73
2020/12/02 04:23:58;;;;;;;20.90;11.50;;;7.90;99.90;;;;;;4176561;28;20507;-74
2020/12/02 04:25:59;;;;;;;19.88;11.93;;;7.90;99.90;;;;;;4176207;28;20025;-74
2020/12/02 04:27:59;;;;;;;21.02;12.20;;;7.90;99.90;;;;;;4175088;28;20066;-75
2020/12/02 04:30:00;;;;;;;17.52;11.60;;;7.90;99.90;;;;;;4158153;28;20031;-74
2020/12/02 04:32:01;;;;;;;19.30;10.82;;;7.90;99.90;;;;;;4176200;28;20418;-74
2020/12/02 04:34:02;;;;;;;18.00;11.10;;;7.90;99.90;;;;;;4158288;28;20045;-74
2020/12/02 04:36:02;;;;;;;16.63;10.98;;;7.90;99.90;;;;;;4175012;28;20044;-74
2020/12/02 04:38:03;;;;;;;21.30;12.55;;;7.90;99.90;;;;;;4174410;28;20528;-74
2020/12/02 04:40:08;;;;;;;19.02;11.23;;;8.00;99.90;;;;;;4172457;28;20112;-74
2020/12/02 04:42:09;;;;;;;17.70;10.50;;;7.90;99.90;;;;;;4174237;28;20612;-74
2020/12/02 04:44:11;;;;;;;21.63;12.30;;;7.90;99.90;;;;;;4158217;28;20034;-74
2020/12/02 04:46:26;;;;;;;20.50;11.40;;;8.00;99.90;;;;;;4175005;28;20083;-74
2020/12/02 04:48:30;;;;;;;19.80;11.32;;;8.00;99.90;;;;;;4174645;28;20061;-74
2020/12/02 04:50:32;;;;;;;19.52;11.48;;;8.00;99.90;;;;;;4175088;28;20071;-74
2020/12/02 04:52:33;;;;;;;20.83;10.68;;;8.00;99.90;;;;;;4173195;28;20116;-74
2020/12/02 04:54:34;;;;;;;18.85;11.32;;;8.00;99.90;;;;;;4171282;28;20037;-74
2020/12/02 04:56:39;;;;;;;19.70;11.30;;;8.00;99.90;;;;;;4174963;28;20041;-74
2020/12/02 04:58:40;;;;;;;19.58;11.32;;;8.00;99.90;;;;;;4174770;28;20377;-74
2020/12/02 05:00:41;;;;;;;19.63;10.98;;;8.00;99.90;;;;;;4174819;28;20036;-74
2020/12/02 05:02:41;;;;;;;16.20;10.65;;;8.00;99.90;;;;;;4174312;28;20041;-74
2020/12/02 05:04:54;;;;;;;18.95;11.38;;;7.90;99.90;;;;;;4173206;28;20078;-74
2020/12/02 05:07:17;;;;;;;21.73;11.88;;;8.00;99.90;;;;;;4171406;28;20033;-74
2020/12/02 05:09:20;;;;;;;22.17;10.35;;;8.00;99.90;;;;;;4174653;28;20369;-74
2020/12/02 05:11:21;;;;;;;24.00;11.68;;;8.00;99.90;;;;;;4165777;28;20497;-74
2020/12/02 05:13:22;;;;;;;22.17;11.82;;;7.90;99.90;;;;;;4176183;28;20159;-74
2020/12/02 05:15:27;;;;;;;22.13;11.65;;;7.90;99.90;;;;;;4166717;28;20053;-74
2020/12/02 05:17:29;;;;;;;21.77;11.02;;;7.90;99.90;;;;;;4176500;28;20063;-74
2020/12/02 05:19:30;;;;;;;25.67;11.10;;;7.90;99.90;;;;;;4174038;28;20090;-74
2020/12/02 05:21:40;;;;;;;24.17;12.57;;;7.90;99.90;;;;;;4167304;28;20032;-74
2020/12/02 05:23:40;;;;;;;22.00;12.02;;;7.90;99.90;;;;;;4174967;28;20028;-74
2020/12/02 05:25:41;;;;;;;24.33;10.82;;;7.80;99.90;;;;;;4175045;28;20036;-74
2020/12/02 05:27:44;;;;;;;22.02;11.05;;;7.80;99.90;;;;;;4168028;28;20115;-74
2020/12/02 05:29:54;;;;;;;22.48;10.43;;;7.80;99.90;;;;;;4174431;28;20462;-74
2020/12/02 05:32:13;;;;;;;21.67;10.88;;;7.80;99.90;;;;;;4158274;28;20466;-74
2020/12/02 05:34:17;;;;;;;16.65;10.00;;;7.70;99.90;;;;;;4174578;28;20112;-74
2020/12/02 05:36:28;;;;;;;20.00;10.15;;;7.70;99.90;;;;;;4173952;28;20048;-74
2020/12/02 05:38:36;;;;;;;19.90;10.20;;;7.70;99.90;;;;;;4175659;28;20041;-76
2020/12/02 05:40:38;;;;;;;20.05;9.70;;;7.70;99.90;;;;;;4167708;28;20036;-76
2020/12/02 05:42:46;;;;;;;24.23;11.10;;;7.70;99.90;;;;;;4174074;28;20043;-76
2020/12/02 05:44:56;;;;;;;23.55;10.75;;;7.60;99.90;;;;;;4170447;28;20799;-76
2020/12/02 05:47:00;;;;;;;23.55;10.95;;;7.60;99.90;;;;;;4169616;28;20033;-76
2020/12/02 05:49:13;;;;;;;17.67;9.80;;;7.60;99.90;;;;;;4173021;28;20107;-74
2020/12/02 05:51:19;;;;;;;23.42;10.88;;;7.70;99.90;;;;;;4171958;28;20044;-75
2020/12/02 05:53:31;;;;;;;19.60;10.00;;;7.70;99.90;;;;;;4173899;28;20041;-75
2020/12/02 05:55:32;;;;;;;19.40;9.50;;;7.70;99.90;;;;;;4167977;28;20112;-75
2020/12/02 05:57:38;;;;;;;23.60;10.80;;;7.70;99.90;;;;;;4174602;28;20378;-75
2020/12/02 05:59:40;;;;;;;22.45;11.20;;;7.70;99.90;;;;;;4174655;28;20060;-75
2020/12/02 06:01:40;;;;;;;25.38;12.48;;;7.70;99.90;;;;;;4157634;28;20037;-75
2020/12/02 06:03:41;;;;;;;20.90;11.32;;;7.70;99.90;;;;;;4173117;28;20029;-75
2020/12/02 06:05:42;;;;;;;23.33;11.13;;;7.70;99.90;;;;;;4156121;28;20038;-75
2020/12/02 06:07:52;;;;;;;23.27;12.10;;;7.70;99.90;;;;;;4172892;28;20620;-75
2020/12/02 06:09:53;;;;;;;23.92;11.50;;;7.70;99.90;;;;;;4173961;28;20064;-75
2020/12/02 06:12:03;;;;;;;23.10;11.18;;;7.70;99.90;;;;;;4148428;28;20091;-75
2020/12/02 06:14:11;;;;;;;23.23;11.10;;;7.70;99.90;;;;;;4168246;28;20037;-75
2020/12/02 06:16:24;;;;;;;22.42;11.63;;;7.70;99.90;;;;;;4155946;28;20099;-75
2020/12/02 06:18:34;;;;;;;21.50;11.65;;;7.70;99.90;;;;;;4149514;28;20478;-75
2020/12/02 06:20:34;;;;;;;19.55;11.55;;;7.70;99.90;;;;;;4176353;28;20091;-75
2020/12/02 06:22:52;;;;;;;19.60;10.38;;;7.60;99.90;;;;;;4178284;28;20036;-75
2020/12/02 06:24:53;;;;;;;21.35;9.93;;;7.60;99.90;;;;;;4173989;28;20039;-75
2020/12/02 06:26:53;;;;;;;19.33;10.13;;;7.60;99.90;;;;;;4188400;28;20032;-75
2020/12/02 06:28:54;;;;;;;15.93;9.55;;;7.60;99.90;;;;;;4176626;28;20090;-75
2020/12/02 06:31:12;;;;;;;18.40;10.13;;;7.60;99.90;;;;;;4178372;28;20055;-75
2020/12/02 06:33:18;;;;;;;18.13;9.07;;;7.60;99.90;;;;;;4177040;28;20131;-75
2020/12/02 06:35:20;;;;;;;18.08;9.80;;;7.60;99.90;;;;;;4160287;28;20037;-75
2020/12/02 06:37:24;;;;;;;17.25;9.45;;;7.60;99.90;;;;;;4152463;28;20390;-75
2020/12/02 06:39:39;;;;;;;19.38;9.38;;;7.50;99.90;;;;;;4158327;28;20037;-74
2020/12/02 06:41:44;;;;;;;15.48;9.23;;;7.50;99.90;;;;;;4165992;28;20040;-75
2020/12/02 06:43:53;;;;;;;17.77;9.55;;;7.50;99.90;;;;;;4177030;28;20064;-75
2020/12/02 06:45:59;;;;;;;23.80;9.57;;;7.40;99.90;;;;;;4168103;28;20063;-75
2020/12/02 06:48:21;;;;;;;16.77;9.25;;;7.50;99.90;;;;;;4176289;28;20036;-75
2020/12/02 06:50:29;;;;;;;17.98;9.52;;;7.40;99.90;;;;;;4176541;28;20044;-74
2020/12/02 06:52:38;;;;;;;17.27;9.40;;;7.50;99.90;;;;;;4169181;28;20120;-75
2020/12/02 06:54:39;;;;;;;16.02;9.30;;;7.50;99.90;;;;;;4174151;28;20036;-75
2020/12/02 06:56:40;;;;;;;19.92;11.30;;;7.50;99.90;;;;;;4172472;28;20485;-75
2020/12/02 06:58:41;;;;;;;20.25;10.32;;;7.60;99.90;;;;;;4159850;28;20135;-74
2020/12/02 07:00:43;;;;;;;22.33;11.27;;;7.50;99.90;;;;;;4177783;28;20428;-75
2020/12/02 07:02:58;;;;;;;20.05;11.25;;;7.60;99.90;;;;;;4159860;28;20137;-75
2020/12/02 07:05:04;;;;;;;21.50;11.70;;;7.60;99.90;;;;;;4175594;28;20041;-75
2020/12/02 07:07:05;;;;;;;20.30;11.05;;;7.60;99.90;;;;;;4174204;28;20037;-75
2020/12/02 07:09:10;;;;;;;17.15;10.32;;;7.70;99.90;;;;;;4158944;28;20033;-75
2020/12/02 07:11:13;;;;;;;19.02;10.68;;;7.70;99.90;;;;;;4159285;28;20053;-75
2020/12/02 07:13:15;;;;;;;21.58;11.27;;;7.60;99.90;;;;;;4175945;28;20049;-75
2020/12/02 07:15:16;;;;;;;18.60;10.50;;;7.70;99.90;;;;;;4175968;28;20524;-75
2020/12/02 07:17:21;;;;;;;20.60;11.18;;;7.70;99.90;;;;;;4179702;28;20041;-79
2020/12/02 07:19:26;;;;;;;18.67;10.32;;;7.70;99.90;;;;;;4158880;28;20489;-79
2020/12/02 07:21:35;;;;;;;19.35;11.35;;;7.70;99.90;;;;;;4170809;28;20415;-79
2020/12/02 07:23:36;;;;;;;20.83;11.57;;;7.70;99.90;;;;;;4172401;28;20095;-79
2020/12/02 07:25:36;;;;;;;18.52;10.55;;;7.70;99.90;;;;;;4179454;28;20465;-78
2020/12/02 07:27:45;;;;;;;18.52;11.07;;;7.70;99.90;;;;;;4177707;28;20056;-78
2020/12/02 07:29:45;;;;;;;21.35;12.43;;;7.70;99.90;;;;;;4177634;28;20112;-78
2020/12/02 07:32:12;;;;;;;22.52;12.18;;;7.70;99.90;;;;;;4159989;28;20064;-77
2020/12/02 07:34:21;;;;;;;19.40;10.77;;;7.60;99.90;;;;;;4178882;28;20040;-78
2020/12/02 07:36:39;;;;;;;21.40;11.45;;;7.60;99.90;;;;;;4177658;28;20028;-78
2020/12/02 07:38:44;;;;;;;19.20;10.95;;;7.60;99.90;;;;;;4160552;28;20026;-78
2020/12/02 07:40:44;;;;;;;18.52;10.27;;;7.60;99.90;;;;;;4176921;28;20440;-76
2020/12/02 07:42:45;;;;;;;19.77;9.95;;;7.70;99.90;;;;;;4177025;28;22072;-76
2020/12/02 07:45:18;;;;;;;16.38;10.10;;;7.70;99.90;;;;;;4175645;28;20534;-76
2020/12/02 07:47:18;;;;;;;19.30;10.10;;;7.70;99.90;;;;;;4176378;28;20489;-76
2020/12/02 07:49:22;;;;;;;15.95;8.90;;;7.70;99.90;;;;;;4158683;28;20044;-75
2020/12/02 07:51:31;;;;;;;15.13;9.35;;;7.70;99.90;;;;;;4172094;28;20154;-75
2020/12/02 07:53:39;;;;;;;17.88;10.40;;;7.70;99.90;;;;;;4176210;28;20041;-75
2020/12/02 07:55:44;;;;;;;15.88;10.23;;;7.80;99.90;;;;;;4171767;28;20037;-77
2020/12/02 07:57:46;;;;;;;19.77;10.27;;;7.80;99.90;;;;;;4175470;28;20063;-77
2020/12/02 08:00:09;;;;;;;21.05;12.13;;;7.80;99.90;;;;;;4171456;28;20460;-76
2020/12/02 08:02:16;;;;;;;19.88;11.23;;;7.80;99.90;;;;;;4175499;28;20120;-77
2020/12/02 08:04:23;;;;;;;19.90;11.27;;;7.80;99.90;;;;;;4148969;28;20053;-77
2020/12/02 08:06:45;;;;;;;21.45;11.45;;;7.80;99.90;;;;;;4183364;28;20021;-77
2020/12/02 08:08:46;;;;;;;21.20;11.40;;;7.80;99.90;;;;;;4145002;28;20033;-77
2020/12/02 08:10:46;;;;;;;20.23;12.15;;;7.80;99.90;;;;;;4176909;28;20033;-77
2020/12/02 08:12:53;;;;;;;25.58;13.25;;;7.80;99.90;;;;;;4173802;28;20033;-77
2020/12/02 08:15:10;;;;;;;22.75;12.40;;;7.80;99.90;;;;;;4157618;28;20038;-76
2020/12/02 08:17:14;;;;;;;23.02;13.40;;;7.80;99.90;;;;;;4174621;28;20037;-77
2020/12/02 08:19:32;;;;;;;25.95;13.15;;;7.90;99.90;;;;;;4174982;28;20052;-76
2020/12/02 08:21:33;;;;;;;24.40;14.23;;;7.80;99.90;;;;;;4171793;28;20025;-77
2020/12/02 08:23:35;;;;;;;23.75;13.82;;;7.90;99.90;;;;;;4157254;28;20036;-77
2020/12/02 08:25:46;;;;;;;25.90;14.82;;;7.90;99.90;;;;;;4157422;28;20374;-77
2020/12/02 08:27:49;;;;;;;26.15;13.93;;;7.90;99.90;;;;;;4173131;28;20021;-76
2020/12/02 08:29:50;;;;;;;22.63;12.95;;;7.80;99.90;;;;;;4157356;28;20025;-77
2020/12/02 08:32:02;;;;;;;27.73;15.02;;;7.90;99.90;;;;;;4174930;28;20032;-76
2020/12/02 08:34:16;;;;;;;25.15;13.77;;;7.90;99.90;;;;;;4174180;28;20513;-77
2020/12/02 08:36:19;;;;;;;27.55;14.88;;;7.90;99.90;;;;;;4158549;28;20080;-77
2020/12/02 08:38:24;;;;;;;23.88;13.80;;;7.90;99.90;;;;;;4174281;28;20397;-76
2020/12/02 08:40:43;;;;;;;22.98;13.45;;;7.90;99.90;;;;;;4174136;28;20025;-77
2020/12/02 08:42:44;;;;;;;28.00;15.07;;;7.90;99.90;;;;;;4157978;28;20029;-77
2020/12/02 08:45:12;;;;;;;27.70;14.38;;;7.90;99.90;;;;;;4174698;28;20037;-77
2020/12/02 08:47:17;;;;;;;28.52;15.50;;;7.90;99.90;;;;;;4165460;28;20057;-77
2020/12/02 08:49:22;;;;;;;25.73;14.95;;;7.90;99.90;;;;;;4174605;28;20087;-77
2020/12/02 08:51:25;;;;;;;26.17;14.85;;;7.90;99.90;;;;;;4166509;28;20084;-77
2020/12/02 08:53:31;;;;;;;27.98;15.43;;;7.90;99.90;;;;;;4156916;28;20025;-77
2020/12/02 08:55:31;;;;;;;22.52;14.07;;;7.90;99.90;;;;;;4190577;28;20115;-77
2020/12/02 08:57:33;;;;;;;27.98;16.02;;;7.90;99.90;;;;;;4176084;28;20028;-76
2020/12/02 08:59:35;;;;;;;29.67;17.07;;;7.90;99.90;;;;;;4175639;28;20028;-77
2020/12/02 09:01:36;;;;;;;30.60;16.67;;;7.90;99.90;;;;;;4150696;28;20030;-77
2020/12/02 09:03:36;;;;;;;36.17;18.92;;;7.90;99.90;;;;;;4173656;28;20524;-77
2020/12/02 09:05:37;;;;;;;34.03;18.38;;;7.90;99.90;;;;;;4157389;28;20481;-78
2020/12/02 09:07:38;;;;;;;34.05;18.77;;;7.80;99.90;;;;;;4173613;28;20128;-75
2020/12/02 09:09:39;;;;;;;37.53;20.00;;;7.80;99.90;;;;;;4172797;28;20025;-75
2020/12/02 09:11:40;;;;;;;46.15;22.73;;;7.80;99.90;;;;;;4156183;28;20068;-75
2020/12/02 09:13:40;;;;;;;48.75;23.13;;;7.70;99.90;;;;;;4174838;28;20040;-75
2020/12/02 09:15:41;;;;;;;39.47;20.98;;;7.60;99.90;;;;;;4156872;28;20029;-74
2020/12/02 09:17:42;;;;;;;40.47;21.75;;;7.60;99.90;;;;;;4172974;28;20043;-74
2020/12/02 09:19:42;;;;;;;43.33;22.20;;;7.50;99.90;;;;;;4156133;28;20045;-74
2020/12/02 09:21:44;;;;;;;41.95;22.67;;;7.50;99.90;;;;;;4156436;28;20663;-75
2020/12/02 09:23:45;;;;;;;45.17;24.23;;;7.50;99.90;;;;;;4174228;28;20063;-75
2020/12/02 09:25:45;;;;;;;51.63;24.75;;;7.50;99.90;;;;;;4174065;28;20685;-74
2020/12/02 09:27:46;;;;;;;43.92;23.23;;;7.40;99.90;;;;;;4174962;28;20029;-74
2020/12/02 09:29:47;;;;;;;46.95;23.25;;;7.40;99.90;;;;;;4152725;28;20021;-75
2020/12/02 09:31:47;;;;;;;40.60;21.55;;;7.40;99.90;;;;;;4174993;28;20452;-75
2020/12/02 09:33:49;;;;;;;54.45;25.40;;;7.40;99.90;;;;;;4157502;28;20109;-75
2020/12/02 09:35:50;;;;;;;49.47;25.50;;;7.40;99.90;;;;;;4174835;28;20036;-74
2020/12/02 09:37:51;;;;;;;54.38;25.48;;;7.30;99.90;;;;;;4173154;28;20033;-75
2020/12/02 09:39:54;;;;;;;58.08;28.08;;;7.30;99.90;;;;;;4173886;28;20048;-75
2020/12/02 09:42:15;;;;;;;53.30;26.33;;;7.30;99.90;;;;;;4165787;28;20037;-75
2020/12/02 09:44:30;;;;;;;48.20;23.35;;;7.30;99.90;;;;;;4172785;28;20099;-74
2020/12/02 09:46:33;;;;;;;53.25;25.17;;;7.40;99.90;;;;;;4157343;28;20037;-75
2020/12/02 09:48:34;;;;;;;53.22;26.05;;;7.30;99.90;;;;;;4174719;28;20370;-75
2020/12/02 09:50:34;;;;;;;55.67;25.98;;;7.40;99.90;;;;;;4173444;28;20041;-75
2020/12/02 09:52:44;;;;;;;46.42;23.23;;;7.40;99.90;;;;;;4178013;28;20485;-75
2020/12/02 09:54:47;;;;;;;48.63;23.40;;;7.40;99.90;;;;;;4176194;28;20051;-74
2020/12/02 09:56:47;;;;;;;45.78;22.85;;;7.40;99.90;;;;;;4175840;28;20033;-74
2020/12/02 09:58:48;;;;;;;46.92;23.25;;;7.50;99.90;;;;;;4175628;28;20103;-75
2020/12/02 10:00:59;;;;;;;55.67;25.58;;;7.50;99.90;;;;;;4175953;28;20062;-75
2020/12/02 10:02:59;;;;;;;48.00;24.15;;;7.50;99.90;;;;;;4159611;28;20036;-74
2020/12/02 10:05:09;;;;;;;50.55;24.15;;;7.50;99.90;;;;;;4176088;28;20029;-74
2020/12/02 10:07:31;;;;;;;45.65;22.75;;;7.50;99.90;;;;;;4157762;28;20042;-74
2020/12/02 10:09:48;;;;;;;44.55;22.48;;;7.50;99.90;;;;;;4175115;28;20485;-74
2020/12/02 10:12:27;;;;;;;50.35;23.73;;;7.50;99.90;;;;;;4156753;28;20043;-74
2020/12/02 10:14:31;;;;;;;48.78;22.77;;;7.50;99.90;;;;;;4174356;28;20040;-74
2020/12/02 10:17:08;;;;;;;45.45;22.42;;;7.60;99.90;;;;;;4176010;28;21330;-74
2020/12/02 10:19:29;;;;;;;40.92;20.98;;;7.60;99.90;;;;;;4174369;28;20045;-74
2020/12/02 10:21:51;;;;;;;40.60;21.02;;;7.60;99.90;;;;;;4156605;28;20040;-74
2020/12/02 10:24:02;;;;;;;35.65;19.63;;;7.70;99.90;;;;;;4175152;28;20268;-75
2020/12/02 10:26:21;;;;;;;33.75;19.42;;;7.70;99.90;;;;;;4169727;28;20032;-74
2020/12/02 10:28:39;;;;;;;33.35;17.77;;;7.70;99.90;;;;;;4175059;28;20030;-74
2020/12/02 10:31:08;;;;;;;29.73;16.85;;;7.80;99.90;;;;;;4165470;28;20090;-74
2020/12/02 10:33:42;;;;;;;34.60;15.73;;;7.70;99.90;;;;;;4176252;28;20041;-74
2020/12/02 10:35:47;;;;;;;33.13;16.60;;;7.70;99.90;;;;;;4174202;28;20045;-74
2020/12/02 10:37:52;;;;;;;33.17;16.20;;;7.60;99.90;;;;;;4158628;28;20033;-74
2020/12/02 10:39:52;;;;;;;32.33;15.40;;;7.60;99.90;;;;;;4175277;28;20396;-74
2020/12/02 10:42:15;;;;;;;27.50;15.05;;;7.40;99.90;;;;;;4176188;28;20060;-75
2020/12/02 10:44:34;;;;;;;22.92;12.80;;;7.40;99.90;;;;;;4175126;28;20057;-74
2020/12/02 10:46:56;;;;;;;24.67;13.35;;;7.40;99.90;;;;;;4173316;28;20056;-74
2020/12/02 10:49:12;;;;;;;21.52;13.00;;;7.30;99.90;;;;;;4174714;28;20040;-74
2020/12/02 10:51:13;;;;;;;22.42;13.85;;;7.30;99.90;;;;;;4175256;28;20089;-74